x

Stonewall Bank - 20nm West Of Newport, Or (46050) Wave Buoy

7:50am - Sun 19th Feb 2017 All times are PST. -8 hours from GMT.

  • Sig Wave height 11.5ft
  • Swell Direction
  • Peak Period 9s
  • Average Period 7s
  • Wind
    29mph, 36mph gusts
  • Sea Temp 51°f
  • Air Temp 50°f
  • Sea Pressure 995.2mb
  • Stonewall Bank - 20nm West Of Newport, Or
  • Stonewall Bank - 20nm West Of Newport, Or

More Historic Weather Station data

Upgrade to MSW Pro to gain access to the past 30 days of data for over 8000 Wavebouys and Weather Stations around the globe.

Join Pro

Comparision Forecast

View Surf forecast
   
Sun 02/19 7:50am 11.5ft 9s 7s 29 36 mph 995.2mb 51f 50f
6:50am 11.5ft 9s 7s 27 31 mph 994.8mb 51f 50f
5:50am 12ft 9s 7s 27 34 mph 994.4mb 51f 50f
4:50am 11.5ft 9s 7s 29 36 mph 994.2mb 51f 47f
3:50am 11ft 8s 7s 25 31 mph 993.9mb 51f 50f
2:50am 10.5ft 8s 7s 22 27 mph 993.8mb 51f 50f
1:50am 12ft 8s 7s 25 29 mph 993.5mb 51f 49f
12:50am 11ft 8s 7s 29 36 mph 993.3mb 51f 46f
Sat 02/18 11:50pm 11ft 7s 6s 34 40 mph 993.3mb 51f 49f
10:50pm 8.5ft 11s 6s 34 40 mph 993.9mb 51f 48f
9:50pm 8ft 12s 6s 29 34 mph 994.9mb 51f 45f
8:50pm 7.5ft 11s 7s 22 29 mph 995.7mb 51f 45f
7:50pm 7.5ft 11s 7s 20 25 mph 996.2mb 51f 47f
6:50pm 7ft 11s 7s 13 20 mph 996.9mb 51f 46f
5:50pm 8ft 11s 7s 11 13 mph 997.4mb 51f 48f
4:50pm 8ft 11s 7s 13 16 mph 998.1mb 51f 48f
3:50pm 8ft 11s 7s 13 16 mph 998.3mb 51f 47f
2:50pm 8ft 11s 7s 11 16 mph 998.4mb 51f 47f
1:50pm 7.5ft 13s 7s 16 18 mph 998.6mb 51f 48f
12:50pm 8ft 13s 7s 16 20 mph 998.6mb 51f 49f
11:50am 8ft 12s 7s 16 20 mph 999mb 51f 48f
10:50am 8ft 11s 7s 18 20 mph 998.6mb 51f 48f
9:50am 8.5ft 8s 7s 18 20 mph 998.3mb 51f 48f
8:50am 9ft 8s 7s 18 22 mph 998mb 51f 49f
7:50am 8ft 7s 6s 20 22 mph 997.3mb 51f 48f
6:50am 9ft 11s 7s 20 25 mph 996.9mb 51f 49f
5:50am 8.5ft 7s 6s 22 27 mph 996.8mb 51f 49f
4:50am 9.5ft 7s 7s 22 27 mph 996.5mb 51f 49f
3:50am 9ft 7s 6s 25 29 mph 996mb 51f 50f
2:50am 9ft 13s 7s 22 25 mph 995.5mb 51f 50f
1:50am 10ft 13s 7s 20 25 mph 995.4mb 51f 50f
12:50am 10ft 12s 7s 22 27 mph 995.3mb 51f 50f
Fri 02/17 11:50pm 10ft 12s 7s 20 25 mph 995.5mb 51f 50f
10:50pm 10ft 11s 7s 22 29 mph 995.4mb 51f 50f
9:50pm 9ft 11s 7s 25 29 mph 995.5mb 51f 50f
8:50pm 9ft 13s 7s 25 27 mph 995.9mb 51f 50f
7:50pm 9ft 12s 7s 22 27 mph 996.1mb 51f 51f
6:50pm 8.5ft 11s 7s 22 27 mph 996.3mb 51f 50f
5:50pm 9ft 14s 7s 22 29 mph 996.2mb 51f 50f
4:50pm 9ft 13s 7s 25 29 mph 996.2mb 51f 50f
3:50pm 8.5ft 11s 7s 22 25 mph 997mb 51f 51f
2:50pm 9ft 11s 8s 22 27 mph 997.3mb 51f 52f
1:50pm 8.5ft 11s 8s 20 25 mph 998.3mb 51f 51f
12:50pm 9ft 13s 8s 20 22 mph 999.4mb 51f 51f
11:50am 9ft 11s 8s 18 22 mph 1000.7mb 51f 50f
10:50am 9.5ft 11s 9s 13 16 mph 1002mb 51f 50f
9:50am 10ft 11s 9s 9 11 mph 1002.8mb 51f 50f
8:50am 10ft 12s 9s 7 11 mph 1003mb 51f 49f
7:50am 11ft 11s 9s 7 11 mph 1004.1mb 51f 49f
6:50am 11ft 11s 9s 7 11 mph 1004.4mb 51f 49f
5:50am 11.5ft 11s 9s 4 7 mph 1004.8mb 51f 49f
4:50am 11.5ft 14s 9s 11 13 mph 1005mb 51f 49f
3:50am 10.5ft 11s 9s 13 16 mph 1005.3mb 51f 49f
2:50am 9.5ft 12s 9s 9 13 mph 1005.8mb 51f 49f
1:50am 10ft 15s 9s 11 13 mph 1006.5mb 51f 50f
12:50am 10ft 15s 9s 11 13 mph 1006.9mb 51f 50f
Thu 02/16 11:50pm 9ft 14s 8s 11 16 mph 1007.4mb 51f 50f
10:50pm 9.5ft 15s 9s 11 16 mph 1007.7mb 51f 50f
9:50pm 10.5ft 12s 9s 13 16 mph 1007.6mb 51f 50f
8:50pm 10ft 12s 8s 13 18 mph 1007.4mb 51f 50f
7:50pm 11ft 16s 9s 16 20 mph 1006.9mb 51f 50f
6:50pm 10.5ft 13s 9s 18 20 mph 1006.5mb 51f 49f
5:50pm 13ft 13s 9s 13 18 mph 1005.8mb 51f 48f
4:50pm 13ft 14s 10s 16 18 mph 1005.2mb 51f 50f
3:50pm 12.5ft 13s 9s 11 13 mph 1004.4mb 51f 51f
2:50pm 13ft 12s 9s 16 18 mph 1003mb 51f 48f
1:50pm 14ft 11s 9s 18 22 mph 1001.5mb 51f 48f
12:50pm 12ft 16s 9s 13 16 mph 1000.3mb 51f 48f
11:50am 12.5ft 12s 9s 11 16 mph 999.6mb 51f 48f
10:50am 13.5ft 11s 9s 13 18 mph 998.3mb 51f 49f
9:50am 14.5ft 12s 10s 2 4 mph 997.3mb 51f 51f
8:50am 13ft 11s 9s 2 7 mph 996.5mb 51f 51f
7:50am 13ft 12s 9s 4 7 mph 996.1mb 51f 51f
6:50am 16ft 11s 10s 2 7 mph 995.9mb 51f 51f
5:50am 14ft 11s 9s 9 11 mph 996.7mb 51f 52f
4:50am 14.5ft 12s 9s 9 11 mph 996.6mb 51f 51f
3:50am 14ft 11s 9s 11 16 mph 996.6mb 51f 52f
2:50am 13ft 12s 9s 13 18 mph 996.6mb 51f 52f
1:50am 15ft 11s 9s 16 20 mph 996.9mb 51f 52f
12:50am 15.5ft 11s 9s 20 25 mph 996.6mb 51f 52f
Wed 02/15 11:50pm 17.5ft 11s 9s 25 29 mph 996.3mb 51f 52f
10:50pm 17.5ft 11s 8s 31 38 mph 996.6mb 51f 52f
9:50pm 18.5ft 11s 8s 38 47 mph 996.3mb 51f 52f
8:50pm 19.5ft 11s 8s 34 40 mph 997.1mb 51f 53f
7:50pm 18.5ft 11s 8s 40 49 mph 996.8mb 51f 53f
6:50pm 20ft 11s 8s 40 47 mph 996.8mb 51f 53f
5:50pm 20.5ft 11s 8s 40 51 mph 997.2mb 51f 53f